sensor_id;sensor_type;location;lat;lon;timestamp;P1;durP1;ratioP1;P2;durP2;ratioP2
48835;SDS011;62581;47.342;7.908;2023-10-09T00:02:11;19.27;;;7.65;;
48835;SDS011;62581;47.342;7.908;2023-10-09T00:04:39;16.60;;;7.57;;
48835;SDS011;62581;47.342;7.908;2023-10-09T00:07:08;16.10;;;7.78;;
48835;SDS011;62581;47.342;7.908;2023-10-09T00:09:37;16.63;;;7.97;;
48835;SDS011;62581;47.342;7.908;2023-10-09T00:12:12;19.52;;;7.75;;
48835;SDS011;62581;47.342;7.908;2023-10-09T00:14:41;20.65;;;7.22;;
48835;SDS011;62581;47.342;7.908;2023-10-09T00:17:13;21.40;;;7.20;;
48835;SDS011;62581;47.342;7.908;2023-10-09T00:19:44;13.77;;;7.05;;
48835;SDS011;62581;47.342;7.908;2023-10-09T00:22:13;19.17;;;7.38;;
48835;SDS011;62581;47.342;7.908;2023-10-09T00:24:52;20.63;;;7.13;;
48835;SDS011;62581;47.342;7.908;2023-10-09T00:27:34;14.50;;;7.18;;
48835;SDS011;62581;47.342;7.908;2023-10-09T00:30:01;19.27;;;7.80;;
48835;SDS011;62581;47.342;7.908;2023-10-09T00:32:31;15.10;;;6.88;;
48835;SDS011;62581;47.342;7.908;2023-10-09T00:34:59;16.90;;;7.30;;
48835;SDS011;62581;47.342;7.908;2023-10-09T00:37:46;16.13;;;7.38;;
48835;SDS011;62581;47.342;7.908;2023-10-09T00:40:17;14.25;;;6.97;;
48835;SDS011;62581;47.342;7.908;2023-10-09T00:42:48;17.70;;;6.82;;
48835;SDS011;62581;47.342;7.908;2023-10-09T00:45:19;17.77;;;6.63;;
48835;SDS011;62581;47.342;7.908;2023-10-09T00:47:52;18.05;;;6.70;;
48835;SDS011;62581;47.342;7.908;2023-10-09T00:50:24;19.20;;;7.90;;
48835;SDS011;62581;47.342;7.908;2023-10-09T00:52:53;18.42;;;7.32;;
48835;SDS011;62581;47.342;7.908;2023-10-09T00:55:28;16.33;;;7.35;;
48835;SDS011;62581;47.342;7.908;2023-10-09T00:58:02;18.60;;;6.90;;
48835;SDS011;62581;47.342;7.908;2023-10-09T01:00:30;11.02;;;6.90;;
48835;SDS011;62581;47.342;7.908;2023-10-09T01:03:11;17.48;;;7.25;;
48835;SDS011;62581;47.342;7.908;2023-10-09T01:05:45;19.48;;;7.75;;
48835;SDS011;62581;47.342;7.908;2023-10-09T01:08:18;16.10;;;7.15;;
48835;SDS011;62581;47.342;7.908;2023-10-09T01:10:55;21.23;;;8.10;;
48835;SDS011;62581;47.342;7.908;2023-10-09T01:13:24;17.73;;;7.47;;
48835;SDS011;62581;47.342;7.908;2023-10-09T01:16:04;19.38;;;7.68;;
48835;SDS011;62581;47.342;7.908;2023-10-09T01:18:32;20.33;;;7.72;;
48835;SDS011;62581;47.342;7.908;2023-10-09T01:21:06;19.75;;;8.30;;
48835;SDS011;62581;47.342;7.908;2023-10-09T01:23:34;17.45;;;7.03;;
48835;SDS011;62581;47.342;7.908;2023-10-09T01:26:12;20.98;;;7.90;;
48835;SDS011;62581;47.342;7.908;2023-10-09T01:28:39;23.65;;;7.70;;
48835;SDS011;62581;47.342;7.908;2023-10-09T01:31:08;17.40;;;7.32;;
48835;SDS011;62581;47.342;7.908;2023-10-09T01:33:35;21.00;;;7.57;;
48835;SDS011;62581;47.342;7.908;2023-10-09T01:36:03;15.50;;;7.17;;
48835;SDS011;62581;47.342;7.908;2023-10-09T01:38:30;19.88;;;7.97;;
48835;SDS011;62581;47.342;7.908;2023-10-09T01:41:07;17.27;;;6.97;;
48835;SDS011;62581;47.342;7.908;2023-10-09T01:43:41;15.35;;;7.63;;
48835;SDS011;62581;47.342;7.908;2023-10-09T01:46:10;25.15;;;8.23;;
48835;SDS011;62581;47.342;7.908;2023-10-09T01:48:41;16.73;;;7.47;;
48835;SDS011;62581;47.342;7.908;2023-10-09T01:51:13;17.23;;;7.82;;
48835;SDS011;62581;47.342;7.908;2023-10-09T01:53:42;21.35;;;7.13;;
48835;SDS011;62581;47.342;7.908;2023-10-09T01:56:12;22.80;;;7.45;;
48835;SDS011;62581;47.342;7.908;2023-10-09T01:58:44;17.60;;;7.35;;
48835;SDS011;62581;47.342;7.908;2023-10-09T02:01:12;21.13;;;7.75;;
48835;SDS011;62581;47.342;7.908;2023-10-09T02:06:08;14.93;;;7.10;;
48835;SDS011;62581;47.342;7.908;2023-10-09T02:08:53;20.85;;;7.63;;
48835;SDS011;62581;47.342;7.908;2023-10-09T02:11:22;15.82;;;7.05;;
48835;SDS011;62581;47.342;7.908;2023-10-09T02:14:06;27.50;;;8.30;;
48835;SDS011;62581;47.342;7.908;2023-10-09T02:16:44;17.05;;;7.25;;
48835;SDS011;62581;47.342;7.908;2023-10-09T02:19:28;22.55;;;8.10;;
48835;SDS011;62581;47.342;7.908;2023-10-09T02:21:59;17.52;;;7.65;;
48835;SDS011;62581;47.342;7.908;2023-10-09T02:24:36;24.07;;;7.80;;
48835;SDS011;62581;47.342;7.908;2023-10-09T02:27:24;18.98;;;7.63;;
48835;SDS011;62581;47.342;7.908;2023-10-09T02:30:19;17.00;;;7.80;;
48835;SDS011;62581;47.342;7.908;2023-10-09T02:32:52;16.30;;;7.43;;
48835;SDS011;62581;47.342;7.908;2023-10-09T02:35:24;19.35;;;7.55;;
48835;SDS011;62581;47.342;7.908;2023-10-09T02:38:03;24.30;;;8.45;;
48835;SDS011;62581;47.342;7.908;2023-10-09T02:40:39;16.52;;;7.78;;
48835;SDS011;62581;47.342;7.908;2023-10-09T02:43:27;16.98;;;7.70;;
48835;SDS011;62581;47.342;7.908;2023-10-09T02:45:59;19.15;;;7.78;;
48835;SDS011;62581;47.342;7.908;2023-10-09T02:48:38;20.27;;;7.55;;
48835;SDS011;62581;47.342;7.908;2023-10-09T02:51:08;18.33;;;7.78;;
48835;SDS011;62581;47.342;7.908;2023-10-09T02:53:41;19.63;;;7.70;;
48835;SDS011;62581;47.342;7.908;2023-10-09T02:56:08;19.90;;;7.70;;
48835;SDS011;62581;47.342;7.908;2023-10-09T02:58:40;16.83;;;7.80;;
48835;SDS011;62581;47.342;7.908;2023-10-09T03:01:10;15.73;;;7.57;;
48835;SDS011;62581;47.342;7.908;2023-10-09T03:03:39;26.15;;;8.00;;
48835;SDS011;62581;47.342;7.908;2023-10-09T03:06:10;16.10;;;7.30;;
48835;SDS011;62581;47.342;7.908;2023-10-09T03:08:38;14.73;;;7.78;;
48835;SDS011;62581;47.342;7.908;2023-10-09T03:11:06;20.52;;;7.97;;
48835;SDS011;62581;47.342;7.908;2023-10-09T03:13:40;17.63;;;8.18;;
48835;SDS011;62581;47.342;7.908;2023-10-09T03:16:10;22.30;;;8.10;;
48835;SDS011;62581;47.342;7.908;2023-10-09T03:18:45;14.27;;;7.32;;
48835;SDS011;62581;47.342;7.908;2023-10-09T03:21:13;18.75;;;7.10;;
48835;SDS011;62581;47.342;7.908;2023-10-09T03:23:43;14.60;;;7.32;;
48835;SDS011;62581;47.342;7.908;2023-10-09T03:26:14;18.80;;;7.07;;
48835;SDS011;62581;47.342;7.908;2023-10-09T03:28:44;16.70;;;6.65;;
48835;SDS011;62581;47.342;7.908;2023-10-09T03:31:11;20.00;;;6.82;;
48835;SDS011;62581;47.342;7.908;2023-10-09T03:33:38;19.98;;;7.68;;
48835;SDS011;62581;47.342;7.908;2023-10-09T03:36:06;22.45;;;7.30;;
48835;SDS011;62581;47.342;7.908;2023-10-09T03:38:34;15.40;;;6.72;;
48835;SDS011;62581;47.342;7.908;2023-10-09T03:41:03;23.50;;;7.45;;
48835;SDS011;62581;47.342;7.908;2023-10-09T03:46:04;17.88;;;7.78;;
48835;SDS011;62581;47.342;7.908;2023-10-09T03:48:39;19.55;;;8.93;;
48835;SDS011;62581;47.342;7.908;2023-10-09T03:51:10;18.92;;;7.38;;
48835;SDS011;62581;47.342;7.908;2023-10-09T03:53:40;16.65;;;6.95;;
48835;SDS011;62581;47.342;7.908;2023-10-09T03:56:08;21.52;;;7.45;;
48835;SDS011;62581;47.342;7.908;2023-10-09T03:58:38;21.45;;;7.53;;
48835;SDS011;62581;47.342;7.908;2023-10-09T04:01:10;17.52;;;7.78;;
48835;SDS011;62581;47.342;7.908;2023-10-09T04:03:43;16.45;;;7.97;;
48835;SDS011;62581;47.342;7.908;2023-10-09T04:06:09;14.10;;;7.47;;
48835;SDS011;62581;47.342;7.908;2023-10-09T04:08:37;20.58;;;7.57;;
48835;SDS011;62581;47.342;7.908;2023-10-09T04:11:12;23.85;;;8.77;;
48835;SDS011;62581;47.342;7.908;2023-10-09T04:13:43;21.00;;;7.72;;
48835;SDS011;62581;47.342;7.908;2023-10-09T04:16:14;19.08;;;8.25;;
48835;SDS011;62581;47.342;7.908;2023-10-09T04:18:59;19.67;;;7.65;;
48835;SDS011;62581;47.342;7.908;2023-10-09T04:21:31;23.17;;;8.43;;
48835;SDS011;62581;47.342;7.908;2023-10-09T04:24:01;25.98;;;8.32;;
48835;SDS011;62581;47.342;7.908;2023-10-09T04:26:46;21.08;;;7.93;;
48835;SDS011;62581;47.342;7.908;2023-10-09T04:29:14;18.17;;;8.23;;
48835;SDS011;62581;47.342;7.908;2023-10-09T04:31:50;21.48;;;8.07;;
48835;SDS011;62581;47.342;7.908;2023-10-09T04:34:20;22.98;;;8.38;;
48835;SDS011;62581;47.342;7.908;2023-10-09T04:37:00;17.65;;;7.90;;
48835;SDS011;62581;47.342;7.908;2023-10-09T04:39:45;24.08;;;8.60;;
48835;SDS011;62581;47.342;7.908;2023-10-09T04:42:26;27.75;;;9.30;;
48835;SDS011;62581;47.342;7.908;2023-10-09T04:45:02;22.25;;;7.82;;
48835;SDS011;62581;47.342;7.908;2023-10-09T04:48:06;20.15;;;7.88;;
48835;SDS011;62581;47.342;7.908;2023-10-09T04:50:33;21.67;;;8.52;;
48835;SDS011;62581;47.342;7.908;2023-10-09T04:53:14;21.52;;;8.70;;
48835;SDS011;62581;47.342;7.908;2023-10-09T04:55:48;16.30;;;7.70;;
48835;SDS011;62581;47.342;7.908;2023-10-09T04:58:23;18.30;;;8.00;;
48835;SDS011;62581;47.342;7.908;2023-10-09T05:00:51;24.42;;;8.02;;
48835;SDS011;62581;47.342;7.908;2023-10-09T05:03:36;24.70;;;7.90;;
48835;SDS011;62581;47.342;7.908;2023-10-09T05:06:09;20.98;;;7.18;;
48835;SDS011;62581;47.342;7.908;2023-10-09T05:09:08;25.25;;;7.97;;
48835;SDS011;62581;47.342;7.908;2023-10-09T05:11:39;26.73;;;7.75;;
48835;SDS011;62581;47.342;7.908;2023-10-09T05:14:20;22.60;;;6.72;;
48835;SDS011;62581;47.342;7.908;2023-10-09T05:17:05;25.35;;;7.88;;
48835;SDS011;62581;47.342;7.908;2023-10-09T05:19:42;27.80;;;7.55;;
48835;SDS011;62581;47.342;7.908;2023-10-09T05:22:40;26.00;;;7.78;;
48835;SDS011;62581;47.342;7.908;2023-10-09T05:25:18;24.15;;;8.82;;
48835;SDS011;62581;47.342;7.908;2023-10-09T05:28:05;23.10;;;8.38;;
48835;SDS011;62581;47.342;7.908;2023-10-09T05:30:46;19.27;;;8.35;;
48835;SDS011;62581;47.342;7.908;2023-10-09T05:33:20;20.55;;;7.53;;
48835;SDS011;62581;47.342;7.908;2023-10-09T05:36:00;19.00;;;9.00;;
48835;SDS011;62581;47.342;7.908;2023-10-09T05:39:00;23.42;;;8.15;;
48835;SDS011;62581;47.342;7.908;2023-10-09T05:41:42;23.10;;;8.15;;
48835;SDS011;62581;47.342;7.908;2023-10-09T05:44:26;19.70;;;7.60;;
48835;SDS011;62581;47.342;7.908;2023-10-09T05:47:41;20.80;;;7.93;;
48835;SDS011;62581;47.342;7.908;2023-10-09T05:50:18;28.05;;;8.10;;
48835;SDS011;62581;47.342;7.908;2023-10-09T05:53:02;25.58;;;8.13;;
48835;SDS011;62581;47.342;7.908;2023-10-09T05:55:42;21.95;;;8.00;;
48835;SDS011;62581;47.342;7.908;2023-10-09T05:58:35;26.02;;;8.15;;
48835;SDS011;62581;47.342;7.908;2023-10-09T06:01:20;29.48;;;7.78;;
48835;SDS011;62581;47.342;7.908;2023-10-09T06:04:05;22.20;;;7.57;;
48835;SDS011;62581;47.342;7.908;2023-10-09T06:06:40;24.00;;;8.60;;
48835;SDS011;62581;47.342;7.908;2023-10-09T06:09:12;25.85;;;7.13;;
48835;SDS011;62581;47.342;7.908;2023-10-09T06:12:14;25.52;;;8.38;;
48835;SDS011;62581;47.342;7.908;2023-10-09T06:14:58;24.42;;;7.50;;
48835;SDS011;62581;47.342;7.908;2023-10-09T06:17:44;25.83;;;7.20;;
48835;SDS011;62581;47.342;7.908;2023-10-09T06:20:15;19.23;;;6.93;;
48835;SDS011;62581;47.342;7.908;2023-10-09T06:22:59;26.85;;;7.53;;
48835;SDS011;62581;47.342;7.908;2023-10-09T06:25:42;15.98;;;6.68;;
48835;SDS011;62581;47.342;7.908;2023-10-09T06:28:16;21.70;;;8.00;;
48835;SDS011;62581;47.342;7.908;2023-10-09T06:30:58;22.13;;;6.85;;
48835;SDS011;62581;47.342;7.908;2023-10-09T06:33:45;21.85;;;7.55;;
48835;SDS011;62581;47.342;7.908;2023-10-09T06:36:33;20.00;;;7.43;;
48835;SDS011;62581;47.342;7.908;2023-10-09T06:39:01;20.80;;;6.85;;
48835;SDS011;62581;47.342;7.908;2023-10-09T06:41:43;19.73;;;7.82;;
48835;SDS011;62581;47.342;7.908;2023-10-09T06:44:31;20.83;;;6.35;;
48835;SDS011;62581;47.342;7.908;2023-10-09T06:47:12;20.75;;;7.85;;
48835;SDS011;62581;47.342;7.908;2023-10-09T06:49:43;23.10;;;7.20;;
48835;SDS011;62581;47.342;7.908;2023-10-09T06:52:30;20.20;;;6.27;;
48835;SDS011;62581;47.342;7.908;2023-10-09T06:55:11;20.13;;;6.95;;
48835;SDS011;62581;47.342;7.908;2023-10-09T06:57:46;20.02;;;7.03;;
48835;SDS011;62581;47.342;7.908;2023-10-09T07:00:14;25.65;;;6.80;;
48835;SDS011;62581;47.342;7.908;2023-10-09T07:02:55;28.35;;;8.13;;
48835;SDS011;62581;47.342;7.908;2023-10-09T07:05:29;18.40;;;7.03;;
48835;SDS011;62581;47.342;7.908;2023-10-09T07:08:13;17.42;;;6.88;;
48835;SDS011;62581;47.342;7.908;2023-10-09T07:11:09;20.98;;;6.95;;
48835;SDS011;62581;47.342;7.908;2023-10-09T07:14:08;17.83;;;6.82;;
48835;SDS011;62581;47.342;7.908;2023-10-09T07:16:55;24.50;;;7.05;;
48835;SDS011;62581;47.342;7.908;2023-10-09T07:19:23;18.83;;;6.53;;
48835;SDS011;62581;47.342;7.908;2023-10-09T07:22:00;19.92;;;7.80;;
48835;SDS011;62581;47.342;7.908;2023-10-09T07:24:28;23.25;;;6.78;;
48835;SDS011;62581;47.342;7.908;2023-10-09T07:27:04;22.63;;;6.53;;
48835;SDS011;62581;47.342;7.908;2023-10-09T07:29:39;15.52;;;7.20;;
48835;SDS011;62581;47.342;7.908;2023-10-09T07:32:13;19.92;;;5.85;;
48835;SDS011;62581;47.342;7.908;2023-10-09T07:34:45;21.98;;;7.22;;
48835;SDS011;62581;47.342;7.908;2023-10-09T07:37:18;20.75;;;6.50;;
48835;SDS011;62581;47.342;7.908;2023-10-09T07:39:48;22.40;;;6.53;;
48835;SDS011;62581;47.342;7.908;2023-10-09T07:42:23;19.00;;;6.65;;
48835;SDS011;62581;47.342;7.908;2023-10-09T07:45:09;18.42;;;6.47;;
48835;SDS011;62581;47.342;7.908;2023-10-09T07:47:58;21.73;;;7.13;;
48835;SDS011;62581;47.342;7.908;2023-10-09T07:50:34;17.48;;;6.78;;
48835;SDS011;62581;47.342;7.908;2023-10-09T07:53:13;19.02;;;7.13;;
48835;SDS011;62581;47.342;7.908;2023-10-09T07:55:51;37.20;;;7.80;;
48835;SDS011;62581;47.342;7.908;2023-10-09T07:58:22;21.40;;;6.95;;
48835;SDS011;62581;47.342;7.908;2023-10-09T08:00:51;21.52;;;6.60;;
48835;SDS011;62581;47.342;7.908;2023-10-09T08:03:41;19.58;;;6.32;;
48835;SDS011;62581;47.342;7.908;2023-10-09T08:06:10;19.42;;;7.32;;
48835;SDS011;62581;47.342;7.908;2023-10-09T08:09:04;26.65;;;7.60;;
48835;SDS011;62581;47.342;7.908;2023-10-09T08:11:53;18.30;;;6.80;;
48835;SDS011;62581;47.342;7.908;2023-10-09T08:14:38;16.05;;;6.25;;
48835;SDS011;62581;47.342;7.908;2023-10-09T08:17:11;17.65;;;6.60;;
48835;SDS011;62581;47.342;7.908;2023-10-09T08:19:40;24.60;;;7.85;;
48835;SDS011;62581;47.342;7.908;2023-10-09T08:22:20;20.77;;;6.80;;
48835;SDS011;62581;47.342;7.908;2023-10-09T08:25:05;21.15;;;6.82;;
48835;SDS011;62581;47.342;7.908;2023-10-09T08:27:33;22.60;;;6.80;;
48835;SDS011;62581;47.342;7.908;2023-10-09T08:30:21;24.05;;;7.53;;
48835;SDS011;62581;47.342;7.908;2023-10-09T08:33:05;18.40;;;7.20;;
48835;SDS011;62581;47.342;7.908;2023-10-09T08:38:27;18.67;;;7.00;;
48835;SDS011;62581;47.342;7.908;2023-10-09T08:41:05;19.70;;;6.50;;
48835;SDS011;62581;47.342;7.908;2023-10-09T08:43:41;21.70;;;5.70;;
48835;SDS011;62581;47.342;7.908;2023-10-09T08:46:17;18.70;;;5.60;;
48835;SDS011;62581;47.342;7.908;2023-10-09T08:48:45;16.73;;;5.53;;
48835;SDS011;62581;47.342;7.908;2023-10-09T08:51:13;16.50;;;6.57;;
48835;SDS011;62581;47.342;7.908;2023-10-09T08:53:41;30.58;;;7.07;;
48835;SDS011;62581;47.342;7.908;2023-10-09T08:56:11;22.25;;;5.97;;
48835;SDS011;62581;47.342;7.908;2023-10-09T08:58:41;17.58;;;6.13;;
48835;SDS011;62581;47.342;7.908;2023-10-09T09:01:08;19.80;;;5.93;;
48835;SDS011;62581;47.342;7.908;2023-10-09T09:03:41;23.98;;;5.93;;
48835;SDS011;62581;47.342;7.908;2023-10-09T09:06:09;23.50;;;5.45;;
48835;SDS011;62581;47.342;7.908;2023-10-09T09:08:36;22.52;;;6.70;;
48835;SDS011;62581;47.342;7.908;2023-10-09T09:11:04;16.70;;;5.28;;
48835;SDS011;62581;47.342;7.908;2023-10-09T09:13:40;21.88;;;6.25;;
48835;SDS011;62581;47.342;7.908;2023-10-09T09:16:13;18.92;;;6.07;;
48835;SDS011;62581;47.342;7.908;2023-10-09T09:21:28;21.90;;;5.72;;
48835;SDS011;62581;47.342;7.908;2023-10-09T09:23:57;21.38;;;5.25;;
48835;SDS011;62581;47.342;7.908;2023-10-09T09:26:34;23.38;;;5.22;;
48835;SDS011;62581;47.342;7.908;2023-10-09T09:29:03;21.17;;;5.22;;
48835;SDS011;62581;47.342;7.908;2023-10-09T09:31:32;15.93;;;5.03;;
48835;SDS011;62581;47.342;7.908;2023-10-09T09:34:04;21.38;;;5.32;;
48835;SDS011;62581;47.342;7.908;2023-10-09T09:36:48;19.05;;;5.07;;
48835;SDS011;62581;47.342;7.908;2023-10-09T09:39:23;17.67;;;5.03;;
48835;SDS011;62581;47.342;7.908;2023-10-09T09:41:55;23.50;;;5.68;;
48835;SDS011;62581;47.342;7.908;2023-10-09T09:44:29;23.27;;;5.65;;
48835;SDS011;62581;47.342;7.908;2023-10-09T09:46:59;21.60;;;5.32;;
48835;SDS011;62581;47.342;7.908;2023-10-09T09:49:28;16.80;;;5.47;;
48835;SDS011;62581;47.342;7.908;2023-10-09T09:52:00;24.75;;;5.40;;
48835;SDS011;62581;47.342;7.908;2023-10-09T09:54:28;18.00;;;5.15;;
48835;SDS011;62581;47.342;7.908;2023-10-09T09:56:59;14.48;;;4.60;;
48835;SDS011;62581;47.342;7.908;2023-10-09T09:59:33;23.48;;;5.63;;
48835;SDS011;62581;47.342;7.908;2023-10-09T10:02:15;22.13;;;5.00;;
48835;SDS011;62581;47.342;7.908;2023-10-09T10:04:50;15.80;;;4.97;;
48835;SDS011;62581;47.342;7.908;2023-10-09T10:07:21;12.10;;;4.75;;
48835;SDS011;62581;47.342;7.908;2023-10-09T10:09:50;14.60;;;4.88;;
48835;SDS011;62581;47.342;7.908;2023-10-09T10:18:57;19.77;;;5.55;;
48835;SDS011;62581;47.342;7.908;2023-10-09T10:21:40;17.00;;;5.20;;
48835;SDS011;62581;47.342;7.908;2023-10-09T10:27:18;21.95;;;5.85;;
48835;SDS011;62581;47.342;7.908;2023-10-09T10:32:55;22.58;;;5.68;;
48835;SDS011;62581;47.342;7.908;2023-10-09T10:35:24;15.70;;;5.18;;
48835;SDS011;62581;47.342;7.908;2023-10-09T10:40:52;17.83;;;5.07;;
48835;SDS011;62581;47.342;7.908;2023-10-09T10:43:24;15.50;;;4.85;;
48835;SDS011;62581;47.342;7.908;2023-10-09T10:46:02;21.88;;;5.70;;
48835;SDS011;62581;47.342;7.908;2023-10-09T10:48:39;14.98;;;5.13;;
48835;SDS011;62581;47.342;7.908;2023-10-09T10:51:11;14.20;;;5.13;;
48835;SDS011;62581;47.342;7.908;2023-10-09T10:53:42;18.17;;;4.93;;
48835;SDS011;62581;47.342;7.908;2023-10-09T10:56:19;17.60;;;4.80;;
48835;SDS011;62581;47.342;7.908;2023-10-09T10:58:53;16.00;;;4.53;;
48835;SDS011;62581;47.342;7.908;2023-10-09T11:01:37;16.60;;;5.03;;
48835;SDS011;62581;47.342;7.908;2023-10-09T11:04:19;18.75;;;4.18;;
48835;SDS011;62581;47.342;7.908;2023-10-09T11:07:03;21.67;;;4.80;;
48835;SDS011;62581;47.342;7.908;2023-10-09T11:09:43;17.55;;;4.55;;
48835;SDS011;62581;47.342;7.908;2023-10-09T11:12:26;21.65;;;4.60;;
48835;SDS011;62581;47.342;7.908;2023-10-09T11:15:03;17.13;;;4.80;;
48835;SDS011;62581;47.342;7.908;2023-10-09T11:20:00;22.85;;;4.82;;
48835;SDS011;62581;47.342;7.908;2023-10-09T11:22:48;17.42;;;4.70;;
48835;SDS011;62581;47.342;7.908;2023-10-09T11:25:42;21.42;;;4.82;;
48835;SDS011;62581;47.342;7.908;2023-10-09T11:28:19;18.65;;;4.43;;
48835;SDS011;62581;47.342;7.908;2023-10-09T11:31:08;13.57;;;5.10;;
48835;SDS011;62581;47.342;7.908;2023-10-09T11:33:43;20.33;;;5.55;;
48835;SDS011;62581;47.342;7.908;2023-10-09T11:36:10;21.45;;;4.43;;
48835;SDS011;62581;47.342;7.908;2023-10-09T11:38:38;12.03;;;4.63;;
48835;SDS011;62581;47.342;7.908;2023-10-09T11:41:15;13.65;;;4.47;;
48835;SDS011;62581;47.342;7.908;2023-10-09T11:43:49;16.80;;;5.20;;
48835;SDS011;62581;47.342;7.908;2023-10-09T11:46:19;15.98;;;4.63;;
48835;SDS011;62581;47.342;7.908;2023-10-09T11:49:13;19.42;;;4.97;;
48835;SDS011;62581;47.342;7.908;2023-10-09T11:52:07;18.50;;;4.65;;
48835;SDS011;62581;47.342;7.908;2023-10-09T11:54:52;17.65;;;5.05;;
48835;SDS011;62581;47.342;7.908;2023-10-09T11:57:23;18.17;;;4.57;;
48835;SDS011;62581;47.342;7.908;2023-10-09T11:59:56;16.88;;;4.90;;
48835;SDS011;62581;47.342;7.908;2023-10-09T12:02:23;15.18;;;4.30;;
48835;SDS011;62581;47.342;7.908;2023-10-09T12:04:50;16.17;;;4.20;;
48835;SDS011;62581;47.342;7.908;2023-10-09T12:07:21;16.80;;;4.72;;
48835;SDS011;62581;47.342;7.908;2023-10-09T12:09:48;17.63;;;5.05;;
48835;SDS011;62581;47.342;7.908;2023-10-09T12:12:16;17.13;;;4.10;;
48835;SDS011;62581;47.342;7.908;2023-10-09T12:14:52;20.15;;;4.95;;
48835;SDS011;62581;47.342;7.908;2023-10-09T12:17:19;19.17;;;4.78;;
48835;SDS011;62581;47.342;7.908;2023-10-09T12:19:49;20.85;;;4.93;;
48835;SDS011;62581;47.342;7.908;2023-10-09T12:22:17;19.27;;;4.40;;
48835;SDS011;62581;47.342;7.908;2023-10-09T12:24:46;27.13;;;5.18;;
48835;SDS011;62581;47.342;7.908;2023-10-09T12:27:13;22.25;;;5.20;;
48835;SDS011;62581;47.342;7.908;2023-10-09T12:29:45;16.80;;;4.45;;
48835;SDS011;62581;47.342;7.908;2023-10-09T12:32:14;13.07;;;4.47;;
48835;SDS011;62581;47.342;7.908;2023-10-09T12:34:44;16.27;;;4.72;;
48835;SDS011;62581;47.342;7.908;2023-10-09T12:37:15;13.60;;;4.13;;
48835;SDS011;62581;47.342;7.908;2023-10-09T12:39:45;20.75;;;4.93;;
48835;SDS011;62581;47.342;7.908;2023-10-09T12:42:13;13.90;;;4.00;;
48835;SDS011;62581;47.342;7.908;2023-10-09T12:44:42;18.73;;;5.22;;
48835;SDS011;62581;47.342;7.908;2023-10-09T12:47:09;13.50;;;3.85;;
48835;SDS011;62581;47.342;7.908;2023-10-09T12:49:38;17.90;;;4.57;;
48835;SDS011;62581;47.342;7.908;2023-10-09T12:52:06;13.75;;;4.20;;
48835;SDS011;62581;47.342;7.908;2023-10-09T12:54:40;14.45;;;4.00;;
48835;SDS011;62581;47.342;7.908;2023-10-09T12:57:08;12.40;;;4.20;;
48835;SDS011;62581;47.342;7.908;2023-10-09T12:59:38;22.17;;;4.97;;
48835;SDS011;62581;47.342;7.908;2023-10-09T13:02:10;16.10;;;4.38;;
48835;SDS011;62581;47.342;7.908;2023-10-09T13:04:40;21.25;;;4.35;;
48835;SDS011;62581;47.342;7.908;2023-10-09T13:07:10;18.10;;;4.65;;
48835;SDS011;62581;47.342;7.908;2023-10-09T13:09:38;15.25;;;3.65;;
48835;SDS011;62581;47.342;7.908;2023-10-09T13:12:08;15.77;;;4.20;;
48835;SDS011;62581;47.342;7.908;2023-10-09T13:14:43;18.15;;;4.40;;
48835;SDS011;62581;47.342;7.908;2023-10-09T13:17:10;22.75;;;4.90;;
48835;SDS011;62581;47.342;7.908;2023-10-09T13:22:09;19.42;;;4.28;;
48835;SDS011;62581;47.342;7.908;2023-10-09T13:24:39;13.80;;;4.60;;
48835;SDS011;62581;47.342;7.908;2023-10-09T13:27:06;16.42;;;4.20;;
48835;SDS011;62581;47.342;7.908;2023-10-09T13:32:05;18.52;;;4.35;;
48835;SDS011;62581;47.342;7.908;2023-10-09T13:34:40;18.60;;;3.70;;
48835;SDS011;62581;47.342;7.908;2023-10-09T13:37:10;22.20;;;4.75;;
48835;SDS011;62581;47.342;7.908;2023-10-09T13:39:39;12.35;;;4.00;;
48835;SDS011;62581;47.342;7.908;2023-10-09T13:42:17;15.40;;;3.80;;
48835;SDS011;62581;47.342;7.908;2023-10-09T13:44:44;19.73;;;5.00;;
48835;SDS011;62581;47.342;7.908;2023-10-09T13:47:13;20.10;;;5.43;;
48835;SDS011;62581;47.342;7.908;2023-10-09T13:49:47;20.65;;;4.78;;
48835;SDS011;62581;47.342;7.908;2023-10-09T13:52:16;17.42;;;3.92;;
48835;SDS011;62581;47.342;7.908;2023-10-09T13:54:44;17.95;;;4.10;;
48835;SDS011;62581;47.342;7.908;2023-10-09T13:57:13;18.35;;;4.65;;
48835;SDS011;62581;47.342;7.908;2023-10-09T13:59:41;17.60;;;4.38;;
48835;SDS011;62581;47.342;7.908;2023-10-09T14:02:14;18.02;;;3.78;;
48835;SDS011;62581;47.342;7.908;2023-10-09T14:04:43;16.48;;;4.38;;
48835;SDS011;62581;47.342;7.908;2023-10-09T14:07:12;15.43;;;4.20;;
48835;SDS011;62581;47.342;7.908;2023-10-09T14:09:42;21.17;;;4.60;;
48835;SDS011;62581;47.342;7.908;2023-10-09T14:12:20;18.02;;;4.28;;
48835;SDS011;62581;47.342;7.908;2023-10-09T14:14:49;16.52;;;4.15;;
48835;SDS011;62581;47.342;7.908;2023-10-09T14:17:19;23.05;;;4.70;;
48835;SDS011;62581;47.342;7.908;2023-10-09T14:19:50;21.20;;;4.57;;
48835;SDS011;62581;47.342;7.908;2023-10-09T14:22:20;19.33;;;4.20;;
48835;SDS011;62581;47.342;7.908;2023-10-09T14:24:49;17.42;;;3.92;;
48835;SDS011;62581;47.342;7.908;2023-10-09T14:27:20;14.88;;;3.83;;
48835;SDS011;62581;47.342;7.908;2023-10-09T14:29:51;22.83;;;4.60;;
48835;SDS011;62581;47.342;7.908;2023-10-09T14:32:21;23.13;;;4.22;;
48835;SDS011;62581;47.342;7.908;2023-10-09T14:34:53;19.58;;;4.50;;
48835;SDS011;62581;47.342;7.908;2023-10-09T14:37:27;18.55;;;4.28;;
48835;SDS011;62581;47.342;7.908;2023-10-09T14:39:55;15.98;;;4.25;;
48835;SDS011;62581;47.342;7.908;2023-10-09T14:42:22;16.70;;;3.88;;
48835;SDS011;62581;47.342;7.908;2023-10-09T14:44:52;24.90;;;4.93;;
48835;SDS011;62581;47.342;7.908;2023-10-09T14:47:20;18.35;;;4.57;;
48835;SDS011;62581;47.342;7.908;2023-10-09T14:49:49;16.50;;;4.07;;
48835;SDS011;62581;47.342;7.908;2023-10-09T14:52:19;22.20;;;4.70;;
48835;SDS011;62581;47.342;7.908;2023-10-09T14:54:47;26.40;;;5.03;;
48835;SDS011;62581;47.342;7.908;2023-10-09T14:57:15;13.38;;;4.18;;
48835;SDS011;62581;47.342;7.908;2023-10-09T14:59:43;15.63;;;3.88;;
48835;SDS011;62581;47.342;7.908;2023-10-09T15:02:11;16.25;;;4.55;;
48835;SDS011;62581;47.342;7.908;2023-10-09T15:04:38;23.77;;;4.43;;
48835;SDS011;62581;47.342;7.908;2023-10-09T15:07:05;21.48;;;4.55;;
48835;SDS011;62581;47.342;7.908;2023-10-09T15:09:32;23.92;;;4.80;;
48835;SDS011;62581;47.342;7.908;2023-10-09T15:12:02;14.68;;;5.00;;
48835;SDS011;62581;47.342;7.908;2023-10-09T15:14:31;21.73;;;4.10;;
48835;SDS011;62581;47.342;7.908;2023-10-09T15:16:58;14.07;;;3.95;;
48835;SDS011;62581;47.342;7.908;2023-10-09T15:19:25;19.40;;;4.68;;
48835;SDS011;62581;47.342;7.908;2023-10-09T15:21:55;20.75;;;4.28;;
48835;SDS011;62581;47.342;7.908;2023-10-09T15:24:23;19.30;;;3.80;;
48835;SDS011;62581;47.342;7.908;2023-10-09T15:26:52;16.73;;;4.03;;
48835;SDS011;62581;47.342;7.908;2023-10-09T15:29:24;15.30;;;4.32;;
48835;SDS011;62581;47.342;7.908;2023-10-09T15:31:55;17.60;;;4.22;;
48835;SDS011;62581;47.342;7.908;2023-10-09T15:34:23;10.65;;;3.35;;
48835;SDS011;62581;47.342;7.908;2023-10-09T15:36:51;10.77;;;3.50;;
48835;SDS011;62581;47.342;7.908;2023-10-09T15:39:19;17.95;;;3.72;;
48835;SDS011;62581;47.342;7.908;2023-10-09T15:41:46;14.80;;;3.65;;
48835;SDS011;62581;47.342;7.908;2023-10-09T15:44:14;23.65;;;4.82;;
48835;SDS011;62581;47.342;7.908;2023-10-09T15:46:43;18.67;;;4.78;;
48835;SDS011;62581;47.342;7.908;2023-10-09T15:49:10;18.88;;;4.00;;